Time;durP1;ratioP1;P1;durP2;ratioP2;P2;SDS_P1;SDS_P2;PMS_P1;PMS_P2;Temp;Humidity;BMP_temperature;BMP_pressure;BME280_temperature;BME280_humidity;BME280_pressure;Samples;Min_cycle;Max_cycle;Signal;HPM_P1;HPM_P2
2022/09/26 00:01:19;;;;;;;20.20;11.68;;;;;;;9.67;71.11;98801.97;5072208;28;20024;-52
2022/09/26 00:03:49;;;;;;;17.05;10.90;;;;;;;9.79;71.18;98832.91;5071174;28;20031;-54
2022/09/26 00:06:17;;;;;;;17.85;11.23;;;;;;;9.75;71.27;98824.31;5071754;28;20063;-52
2022/09/26 00:08:43;;;;;;;21.25;11.20;;;;;;;9.75;71.38;98829.66;5071965;28;20147;-52
2022/09/26 00:11:11;;;;;;;15.80;10.88;;;;;;;9.74;71.63;98821.81;5072111;28;20100;-55
2022/09/26 00:13:39;;;;;;;18.60;11.05;;;;;;;9.73;71.35;98828.13;5071437;28;20344;-51
2022/09/26 00:16:05;;;;;;;16.80;10.25;;;;;;;9.70;71.32;98823.91;5072017;28;20121;-52
2022/09/26 00:18:30;;;;;;;17.02;10.65;;;;;;;9.64;71.73;98816.47;5071744;28;20063;-56
2022/09/26 00:21:09;;;;;;;17.10;10.25;;;;;;;9.76;71.85;98827.84;5071565;28;20036;-53
2022/09/26 00:23:34;;;;;;;21.70;10.70;;;;;;;9.63;71.64;98820.13;5072252;28;20043;-50
2022/09/26 00:26:00;;;;;;;17.65;10.90;;;;;;;9.64;71.30;98819.13;5071335;28;20033;-49
2022/09/26 00:28:26;;;;;;;19.63;11.18;;;;;;;9.65;71.57;98825.34;5071682;28;20033;-51
2022/09/26 00:30:52;;;;;;;15.82;11.27;;;;;;;9.65;71.63;98822.66;5072524;28;20347;-55
2022/09/26 00:33:18;;;;;;;13.32;9.68;;;;;;;9.65;71.94;98830.69;5071751;28;20083;-55
2022/09/26 00:35:50;;;;;;;21.10;10.93;;;;;;;9.69;71.83;98837.44;5071639;28;20158;-54
2022/09/26 00:38:16;;;;;;;18.02;10.30;;;;;;;9.61;71.85;98836.28;5071923;28;20024;-53
2022/09/26 00:40:42;;;;;;;16.55;10.25;;;;;;;9.56;71.83;98827.84;5071372;28;20106;-53
2022/09/26 00:43:27;;;;;;;20.33;9.90;;;;;;;9.73;71.84;98841.50;5071568;28;20079;-53
2022/09/26 00:45:56;;;;;;;13.23;9.03;;;;;;;9.65;71.65;98839.53;5072206;28;20175;-55
2022/09/26 00:48:22;;;;;;;15.80;9.13;;;;;;;9.60;71.67;98845.28;5071984;28;20285;-54
2022/09/26 00:50:48;;;;;;;14.38;9.35;;;;;;;9.56;71.51;98837.72;5071500;28;20044;-51
2022/09/26 00:53:22;;;;;;;14.48;9.13;;;;;;;9.61;71.54;98846.97;5071454;28;20478;-52
2022/09/26 00:55:53;;;;;;;15.88;8.60;;;;;;;9.59;71.89;98846.28;5075723;28;20028;-52
2022/09/26 00:58:34;;;;;;;13.88;8.43;;;;;;;9.64;71.79;98845.88;5075005;28;20036;-53
2022/09/26 01:01:00;;;;;;;10.65;8.50;;;;;;;9.56;71.31;98849.25;5075384;28;20039;-52
2022/09/26 01:03:30;;;;;;;13.05;9.35;;;;;;;9.59;71.48;98848.94;5075600;28;20371;-55
2022/09/26 01:05:56;;;;;;;17.80;8.85;;;;;;;9.56;71.71;98846.56;5074215;28;20037;-59
2022/09/26 01:08:30;;;;;;;14.55;8.60;;;;;;;9.61;71.88;98844.31;5075595;28;20090;-52
2022/09/26 01:10:56;;;;;;;12.65;8.52;;;;;;;9.60;71.41;98847.97;5075223;28;20033;-57
2022/09/26 01:13:22;;;;;;;16.45;8.23;;;;;;;9.61;71.22;98843.47;5075607;28;20031;-51
2022/09/26 01:15:48;;;;;;;13.45;8.73;;;;;;;9.56;71.14;98838.56;5075256;28;20119;-49
2022/09/26 01:18:13;;;;;;;14.80;8.88;;;;;;;9.58;70.82;98841.09;5075079;28;20029;-53
2022/09/26 01:20:50;;;;;;;15.95;8.35;;;;;;;9.63;71.16;98845.00;5074453;28;20096;-53
2022/09/26 01:23:16;;;;;;;12.35;7.90;;;;;;;9.59;71.08;98842.78;5075302;28;20048;-53
2022/09/26 01:26:18;;;;;;;9.98;7.97;;;;;;;9.57;71.33;98826.88;5074932;28;20365;-52
2022/09/26 01:29:05;;;;;;;11.05;8.23;;;;;;;9.70;71.11;98845.28;5074608;28;20399;-51
2022/09/26 01:32:47;;;;;;;11.68;8.50;;;;;;;9.68;71.34;98844.59;5054797;28;20039;-50
2022/09/26 01:34:45;;;;;;;10.63;8.25;;;;;;;9.69;70.97;98846.28;5054749;28;20352;-51
2022/09/26 01:37:31;;;;;;;11.80;8.82;;;;;;;9.64;71.14;98845.88;5054636;28;20101;-51
2022/09/26 01:40:14;;;;;;;11.93;8.57;;;;;;;9.68;71.32;98846.44;5054894;28;20063;-53
2022/09/26 01:43:01;;;;;;;11.38;9.25;;;;;;;9.65;71.66;98850.22;5054691;28;20098;-52
2022/09/26 01:45:40;;;;;;;12.88;9.75;;;;;;;9.59;71.16;98854.28;5068553;28;20066;-51
2022/09/26 01:48:17;;;;;;;15.77;10.00;;;;;;;9.57;71.84;98848.25;5074201;28;20035;-53
2022/09/26 01:50:51;;;;;;;12.77;10.10;;;;;;;9.53;71.37;98852.19;5074257;28;20056;-50
2022/09/26 01:53:23;;;;;;;13.20;10.40;;;;;;;9.52;71.80;98857.66;5074611;28;20043;-50
2022/09/26 01:55:55;;;;;;;14.73;9.95;;;;;;;9.50;71.92;98856.97;5074208;28;20030;-50
2022/09/26 01:58:29;;;;;;;12.82;9.82;;;;;;;9.52;71.88;98863.88;5074018;28;20405;-52
2022/09/26 02:00:59;;;;;;;11.60;9.35;;;;;;;9.54;71.91;98867.25;5074668;28;20047;-53
2022/09/26 02:03:30;;;;;;;13.45;9.80;;;;;;;9.53;71.66;98872.75;5074360;28;20046;-51
2022/09/26 02:06:10;;;;;;;10.75;9.57;;;;;;;9.58;71.81;98868.66;5073678;28;20466;-49
2022/09/26 02:08:41;;;;;;;12.93;9.48;;;;;;;9.59;71.45;98872.19;5073805;28;20450;-50
2022/09/26 02:11:11;;;;;;;14.30;9.25;;;;;;;9.54;71.50;98863.75;5074259;28;20086;-54
2022/09/26 02:13:46;;;;;;;14.02;10.02;;;;;;;9.56;71.68;98870.63;5074208;28;20115;-52
2022/09/26 02:16:19;;;;;;;15.85;10.27;;;;;;;9.60;71.74;98880.03;5073846;28;20024;-51
2022/09/26 02:18:53;;;;;;;12.60;9.85;;;;;;;9.57;71.77;98882.16;5073829;28;20417;-49
2022/09/26 02:21:20;;;;;;;12.85;9.07;;;;;;;9.55;71.37;98887.63;5073920;28;20033;-52
2022/09/26 02:23:51;;;;;;;14.60;8.82;;;;;;;9.59;71.49;98885.53;5073825;28;20355;-49
2022/09/26 02:26:17;;;;;;;13.60;9.43;;;;;;;9.53;71.47;98878.91;5073996;28;20036;-53
2022/09/26 02:28:43;;;;;;;16.70;9.50;;;;;;;9.54;71.21;98883.28;5073555;28;20035;-52
2022/09/26 02:31:10;;;;;;;14.15;9.27;;;;;;;9.56;71.57;98889.31;5072312;28;20107;-52
2022/09/26 02:33:36;;;;;;;14.45;8.95;;;;;;;9.54;71.40;98883.28;5073984;28;20025;-52
2022/09/26 02:36:06;;;;;;;14.57;8.30;;;;;;;9.56;71.20;98889.31;5073457;28;20044;-57
2022/09/26 02:38:33;;;;;;;11.38;8.68;;;;;;;9.56;71.58;98886.66;5073654;28;20123;-55
2022/09/26 02:41:06;;;;;;;14.23;8.50;;;;;;;9.61;71.49;98888.91;5073383;28;20032;-49
2022/09/26 02:44:16;;;;;;;15.23;9.75;;;;;;;9.68;71.82;98889.19;5073349;28;20037;-55
2022/09/26 02:47:10;;;;;;;14.18;9.18;;;;;;;9.66;71.61;98891.16;5070868;28;20123;-51
2022/09/26 02:50:07;;;;;;;18.02;8.52;;;;;;;9.66;71.89;98878.63;5073133;28;20608;-52
2022/09/26 02:53:07;;;;;;;11.95;8.48;;;;;;;9.68;71.62;98898.03;5065851;28;20040;-56
2022/09/26 02:55:45;;;;;;;9.48;8.00;;;;;;;9.58;71.53;98897.22;5072476;28;20120;-52
2022/09/26 02:58:10;;;;;;;13.48;8.50;;;;;;;9.52;71.42;98887.06;5073297;28;20036;-51
2022/09/26 03:00:42;;;;;;;11.68;8.73;;;;;;;9.53;71.89;98894.13;5073132;28;20131;-51
2022/09/26 03:03:46;;;;;;;12.02;8.70;;;;;;;9.56;72.15;98893.84;5072998;28;20032;-54
2022/09/26 03:06:16;;;;;;;11.25;8.07;;;;;;;9.47;71.73;98892.84;5072199;28;20060;-49
2022/09/26 03:08:46;;;;;;;13.88;8.63;;;;;;;9.44;71.67;98893.97;5073257;28;20435;-50
2022/09/26 03:11:15;;;;;;;13.48;8.15;;;;;;;9.43;72.00;98891.44;5071855;28;20039;-51
2022/09/26 03:13:41;;;;;;;9.95;8.20;;;;;;;9.43;71.80;98891.44;5072407;28;20108;-48
2022/09/26 03:16:08;;;;;;;9.38;7.63;;;;;;;9.44;71.47;98893.13;5071760;28;20051;-50
2022/09/26 03:18:43;;;;;;;8.68;7.68;;;;;;;9.49;71.50;98896.22;5071855;28;20033;-53
2022/09/26 03:21:08;;;;;;;9.48;7.70;;;;;;;9.44;70.97;98893.13;5073059;28;20029;-52
2022/09/26 03:23:34;;;;;;;9.50;7.47;;;;;;;9.43;71.56;98896.78;5072728;28;20079;-54
2022/09/26 03:26:02;;;;;;;9.00;7.50;;;;;;;9.28;71.33;98866.94;5072646;28;20036;-52
2022/09/26 03:28:28;;;;;;;9.73;7.70;;;;;;;9.43;71.51;98891.44;5071958;28;20128;-51
2022/09/26 03:30:53;;;;;;;11.90;7.95;;;;;;;9.42;71.13;98895.94;5072660;28;20111;-53
2022/09/26 03:33:19;;;;;;;9.45;7.53;;;;;;;9.43;71.61;98897.63;5072525;28;20036;-51
2022/09/26 03:35:44;;;;;;;12.43;7.53;;;;;;;9.26;71.11;98864.44;5072127;28;20028;-50
2022/09/26 03:38:10;;;;;;;13.65;8.15;;;;;;;9.42;71.18;98887.91;5072753;28;20118;-53
2022/09/26 03:40:35;;;;;;;11.27;8.35;;;;;;;9.42;70.94;98906.63;5072466;28;20032;-50
2022/09/26 03:43:01;;;;;;;13.80;9.00;;;;;;;9.44;71.20;98901.16;5072213;28;20036;-49
2022/09/26 03:45:27;;;;;;;11.10;8.05;;;;;;;9.45;70.78;98900.16;5072396;28;20060;-49
2022/09/26 03:47:57;;;;;;;12.88;8.82;;;;;;;9.48;71.26;98913.25;5072305;28;20055;-48
2022/09/26 03:50:23;;;;;;;11.43;8.27;;;;;;;9.44;71.15;98915.34;5071635;28;20044;-48
2022/09/26 03:52:49;;;;;;;10.02;8.20;;;;;;;9.43;71.14;98899.47;5072228;28;20040;-50
2022/09/26 03:55:14;;;;;;;10.77;8.07;;;;;;;9.44;71.19;98914.50;5072004;28;20438;-50
2022/09/26 03:57:40;;;;;;;11.52;8.48;;;;;;;9.45;71.08;98916.19;5072015;28;20028;-47
2022/09/26 04:00:06;;;;;;;9.95;8.55;;;;;;;9.44;70.71;98915.34;5072238;28;20410;-57
2022/09/26 04:02:33;;;;;;;11.68;8.77;;;;;;;9.44;71.44;98911.84;5071967;28;20031;-49
2022/09/26 04:04:58;;;;;;;13.93;8.25;;;;;;;9.43;71.13;98912.81;5071719;28;20052;-48
2022/09/26 04:07:24;;;;;;;12.25;9.02;;;;;;;9.40;71.32;98911.25;5072152;28;20036;-51
2022/09/26 04:09:50;;;;;;;13.10;7.80;;;;;;;9.37;71.30;98908.00;5071805;28;20085;-49
2022/09/26 04:12:16;;;;;;;12.52;9.15;;;;;;;9.36;70.60;98914.34;5072014;28;20064;-49
2022/09/26 04:14:42;;;;;;;9.38;7.78;;;;;;;9.40;71.13;98915.75;5071839;28;20107;-49
2022/09/26 04:17:08;;;;;;;11.20;7.97;;;;;;;9.38;70.87;98920.38;5071632;28;20423;-54
2022/09/26 04:19:33;;;;;;;11.65;8.10;;;;;;;9.38;71.37;98918.56;5072361;28;20105;-55
2022/09/26 04:21:59;;;;;;;10.85;7.78;;;;;;;9.36;71.17;98917.00;5072222;28;20048;-54
2022/09/26 04:24:24;;;;;;;11.45;8.73;;;;;;;9.34;71.51;98923.34;5071976;28;20068;-49
2022/09/26 04:26:50;;;;;;;11.68;8.45;;;;;;;9.30;71.64;98932.59;5071571;28;20060;-51
2022/09/26 04:29:16;;;;;;;16.15;8.57;;;;;;;9.26;71.43;98933.88;5073522;28;20064;-51
2022/09/26 04:31:41;;;;;;;12.25;8.63;;;;;;;9.26;70.88;98933.00;5075909;28;20029;-52
2022/09/26 04:34:09;;;;;;;11.73;7.75;;;;;;;9.26;70.90;98939.22;5076153;28;20035;-54
2022/09/26 04:36:35;;;;;;;10.32;7.88;;;;;;;9.23;71.16;98931.47;5076302;28;20189;-48
2022/09/26 04:39:00;;;;;;;10.18;7.90;;;;;;;9.21;71.25;98929.91;5075870;28;20392;-53
2022/09/26 04:41:27;;;;;;;12.38;8.90;;;;;;;9.24;71.54;98935.84;5075354;28;20043;-50
2022/09/26 04:43:53;;;;;;;11.82;7.38;;;;;;;9.22;71.54;98931.59;5075731;28;20309;-52
2022/09/26 04:46:21;;;;;;;11.30;8.55;;;;;;;9.28;71.51;98937.25;5075969;28;20036;-48
2022/09/26 04:48:48;;;;;;;14.13;7.93;;;;;;;9.32;71.41;98935.16;5075250;28;20048;-53
2022/09/26 04:51:15;;;;;;;12.32;9.32;;;;;;;9.36;71.13;98933.03;5075451;28;20105;-57
2022/09/26 04:53:41;;;;;;;11.30;8.90;;;;;;;9.36;71.35;98927.69;5075569;28;20043;-57
2022/09/26 04:56:09;;;;;;;11.95;8.77;;;;;;;9.46;71.21;98940.09;5075959;28;20363;-52
2022/09/26 04:58:37;;;;;;;9.82;8.35;;;;;;;9.51;70.90;98939.69;5074979;28;20033;-51
2022/09/26 05:01:07;;;;;;;14.80;8.23;;;;;;;9.55;70.73;98941.09;5075323;28;20025;-53
2022/09/26 05:03:35;;;;;;;12.70;8.10;;;;;;;9.60;70.33;98929.97;5075511;28;20031;-54
2022/09/26 05:06:01;;;;;;;12.63;8.63;;;;;;;9.63;70.51;98943.06;5075300;28;20443;-52
2022/09/26 05:08:27;;;;;;;9.57;7.82;;;;;;;9.69;70.10;98939.00;5075424;28;20035;-52
2022/09/26 05:10:54;;;;;;;13.20;7.78;;;;;;;9.69;70.31;98939.81;5075255;28;20032;-51
2022/09/26 05:13:20;;;;;;;15.20;8.52;;;;;;;9.76;69.63;98946.28;5075154;28;20047;-58
2022/09/26 05:15:53;;;;;;;9.98;7.60;;;;;;;9.80;69.66;98952.22;5075151;28;20098;-56
2022/09/26 05:18:18;;;;;;;10.13;7.25;;;;;;;9.85;69.83;98944.59;5074931;28;20359;-57
2022/09/26 05:20:47;;;;;;;11.82;7.28;;;;;;;9.89;69.46;98948.72;5074220;28;20025;-55
2022/09/26 05:26:18;;;;;;;15.25;8.00;;;;;;;9.96;69.71;98945.47;5075118;28;20465;-50
2022/09/26 05:26:24;;;;;;;10.82;7.03;;;;;;;10.18;69.03;98944.28;5075195;28;20029;-57
2022/09/26 05:29:00;;;;;;;10.55;6.93;;;;;;;10.20;68.10;98953.88;5073949;28;20564;-53
2022/09/26 05:31:28;;;;;;;13.23;7.30;;;;;;;10.23;68.20;98951.91;5074860;28;20039;-54
2022/09/26 05:33:56;;;;;;;9.10;6.63;;;;;;;10.27;68.18;98959.50;5075017;28;20028;-54
2022/09/26 05:36:23;;;;;;;11.75;7.30;;;;;;;10.26;68.08;98951.63;5074651;28;20081;-53
2022/09/26 05:38:50;;;;;;;10.68;7.25;;;;;;;10.14;67.77;98921.50;5074431;28;20047;-54
2022/09/26 05:41:15;;;;;;;9.85;7.45;;;;;;;10.42;67.52;98957.25;5073476;28;20032;-56
2022/09/26 05:43:41;;;;;;;11.02;7.05;;;;;;;10.45;66.82;98962.31;5074985;28;20032;-61
2022/09/26 05:46:09;;;;;;;13.00;6.95;;;;;;;10.52;67.05;98964.41;5074733;28;20032;-54
2022/09/26 05:48:36;;;;;;;9.70;6.78;;;;;;;10.57;67.05;98960.31;5071739;28;20040;-56
2022/09/26 05:51:10;;;;;;;10.48;7.30;;;;;;;10.64;66.95;98955.22;5073207;28;20255;-57
2022/09/26 05:53:37;;;;;;;10.57;7.45;;;;;;;10.62;66.99;98958.03;5073508;28;20094;-54
2022/09/26 05:56:05;;;;;;;10.68;7.45;;;;;;;10.67;66.77;98964.78;5072418;28;20039;-58
2022/09/26 05:58:32;;;;;;;12.43;7.65;;;;;;;10.70;66.55;98965.34;5072424;28;20187;-58
2022/09/26 06:01:17;;;;;;;8.02;6.93;;;;;;;10.84;66.49;98960.50;5073026;28;20054;-57
2022/09/26 06:03:44;;;;;;;9.20;7.60;;;;;;;10.81;65.75;98964.31;5072800;28;20036;-62
2022/09/26 06:06:11;;;;;;;11.18;7.82;;;;;;;10.85;65.73;98967.53;5073584;28;20413;-53
2022/09/26 06:08:37;;;;;;;9.80;7.28;;;;;;;10.95;65.51;98968.34;5073860;28;20024;-59
2022/09/26 06:11:23;;;;;;;9.90;6.97;;;;;;;11.14;65.75;98974.63;5073577;28;20139;-53
2022/09/26 06:13:49;;;;;;;;;;;;;;;11.51;65.57;98962.97;5073764;28;20035;-56
2022/09/26 06:16:17;;;;;;;11.38;6.85;;;;;;;11.39;63.65;98970.38;5073644;28;19916;-50
2022/09/26 06:18:44;;;;;;;10.63;6.82;;;;;;;11.40;63.82;98976.59;5073713;28;20506;-63
2022/09/26 06:21:12;;;;;;;7.75;6.80;;;;;;;11.43;63.22;98974.44;5073958;28;20119;-57
2022/09/26 06:23:38;;;;;;;10.68;7.43;;;;;;;11.43;62.80;98981.66;5071391;28;20191;-57
2022/09/26 06:26:09;;;;;;;11.88;7.35;;;;;;;11.45;62.89;98982.34;5064797;28;20125;-51
2022/09/26 06:28:35;;;;;;;12.93;7.10;;;;;;;11.47;62.86;98980.34;5061894;28;20029;-51
2022/09/26 06:31:12;;;;;;;12.18;7.40;;;;;;;11.57;62.90;98983.78;5063705;28;20098;-50
2022/09/26 06:33:37;;;;;;;12.13;8.10;;;;;;;11.53;62.52;98986.94;5065494;28;20020;-53
2022/09/26 06:36:05;;;;;;;11.20;7.60;;;;;;;11.41;62.52;98959.50;5071071;28;20696;-53
2022/09/26 06:38:31;;;;;;;13.88;7.70;;;;;;;11.60;62.67;98983.53;5072327;28;20028;-53
2022/09/26 06:40:57;;;;;;;13.98;8.35;;;;;;;11.64;62.37;98989.41;5070386;28;20341;-50
2022/09/26 06:43:22;;;;;;;12.77;8.13;;;;;;;11.69;61.93;98987.09;5059288;28;20032;-52
2022/09/26 06:45:48;;;;;;;8.15;7.35;;;;;;;11.61;61.55;98969.13;5053064;28;20025;-54
2022/09/26 06:48:18;;;;;;;9.88;6.65;;;;;;;11.82;61.61;98999.31;5066062;28;20079;-61
2022/09/26 06:50:43;;;;;;;9.30;6.53;;;;;;;11.80;61.52;98996.78;5063495;28;20040;-60
2022/09/26 06:53:09;;;;;;;11.07;7.00;;;;;;;11.84;61.38;98991.94;5060586;28;20086;-52
2022/09/26 06:55:35;;;;;;;7.55;6.80;;;;;;;11.89;61.29;98993.19;5063716;28;20932;-56
2022/09/26 06:58:02;;;;;;;8.63;6.57;;;;;;;11.96;61.06;98987.19;5055707;28;20487;-56
2022/09/26 07:00:34;;;;;;;7.32;5.93;;;;;;;11.99;60.10;98993.13;5053276;28;20041;-53
2022/09/26 07:03:00;;;;;;;8.07;6.35;;;;;;;11.84;60.66;98991.94;5053487;28;20403;-55
2022/09/26 07:05:26;;;;;;;8.93;6.20;;;;;;;11.84;61.07;98995.50;5052995;28;20083;-56
2022/09/26 07:07:52;;;;;;;10.35;6.75;;;;;;;11.89;60.70;98995.00;5053261;28;20111;-57
2022/09/26 07:10:18;;;;;;;9.13;6.05;;;;;;;11.93;60.66;98996.38;5053407;28;20436;-55
2022/09/26 07:12:46;;;;;;;9.38;6.15;;;;;;;11.99;59.91;99009.22;5053243;28;20071;-58
2022/09/26 07:15:16;;;;;;;11.85;5.93;;;;;;;12.01;60.51;99012.63;5052999;28;20091;-57
2022/09/26 07:17:43;;;;;;;7.15;5.70;;;;;;;11.80;60.92;99020.91;5053015;28;20033;-56
2022/09/26 07:20:10;;;;;;;8.60;5.95;;;;;;;11.57;61.11;98994.53;5053085;28;20443;-55
2022/09/26 07:22:36;;;;;;;8.32;5.55;;;;;;;11.70;61.01;99025.50;5052018;28;20098;-56
2022/09/26 07:25:02;;;;;;;6.47;5.38;;;;;;;11.70;61.24;99029.03;5052526;28;20032;-56
2022/09/26 07:27:29;;;;;;;7.60;5.53;;;;;;;11.76;61.58;99015.03;5052505;28;20402;-54
2022/09/26 07:29:55;;;;;;;9.40;5.65;;;;;;;11.87;61.50;99019.31;5052763;28;20035;-57
2022/09/26 07:32:21;;;;;;;6.20;5.15;;;;;;;11.95;60.57;99031.97;5052749;28;20029;-55
2022/09/26 07:34:47;;;;;;;7.03;4.60;;;;;;;12.02;60.23;99021.50;5052863;28;20029;-50
2022/09/26 07:37:13;;;;;;;5.63;4.82;;;;;;;12.06;60.25;99025.56;5052943;28;20029;-57
2022/09/26 07:39:39;;;;;;;5.90;5.30;;;;;;;12.09;60.09;99032.47;5052801;28;20390;-54
2022/09/26 07:42:05;;;;;;;7.30;4.72;;;;;;;12.14;59.63;99033.69;5052400;28;20064;-55
2022/09/26 07:44:30;;;;;;;5.45;4.95;;;;;;;12.24;59.10;99028.25;5052665;28;20029;-53
2022/09/26 07:52:26;;;;;;;5.32;4.82;;;;;;;12.46;58.38;99026.91;5052294;28;20124;-56
2022/09/26 07:54:52;;;;;;;5.57;4.70;;;;;;;12.71;57.69;99039.69;5052175;28;20043;-59
2022/09/26 07:57:18;;;;;;;5.32;4.80;;;;;;;12.86;56.80;99045.31;5052753;28;20025;-56
2022/09/26 07:59:44;;;;;;;5.72;4.72;;;;;;;12.99;56.83;99042.22;5051978;28;20064;-55
2022/09/26 08:02:32;;;;;;;6.78;4.32;;;;;;;13.25;56.80;99044.84;5052224;28;20033;-53
2022/09/26 08:04:59;;;;;;;5.18;4.10;;;;;;;13.20;55.94;99044.50;5051690;28;20041;-53
2022/09/26 08:07:25;;;;;;;7.40;4.68;;;;;;;13.21;56.01;99040.81;5052213;28;20055;-54
2022/09/26 08:09:53;;;;;;;5.40;3.97;;;;;;;13.32;55.79;99040.53;5051166;28;20029;-56
2022/09/26 08:12:18;;;;;;;5.70;4.00;;;;;;;13.39;54.89;99047.94;5051504;28;20354;-56
2022/09/26 08:14:48;;;;;;;7.75;3.47;;;;;;;13.52;55.24;99055.59;5051877;28;20025;-54
2022/09/26 08:17:17;;;;;;;3.97;2.90;;;;;;;13.47;55.15;99045.31;5051932;28;20029;-54
2022/09/26 08:19:43;;;;;;;5.18;3.38;;;;;;;13.35;55.72;99048.28;5052257;28;20029;-53
2022/09/26 08:22:09;;;;;;;5.72;2.65;;;;;;;13.30;55.68;99053.31;5052286;28;20293;-59
2022/09/26 08:24:34;;;;;;;4.05;2.33;;;;;;;13.27;55.71;99050.94;5052005;28;20471;-54
2022/09/26 08:27:00;;;;;;;4.63;2.40;;;;;;;13.30;56.20;99056.00;5051861;28;20036;-52
2022/09/26 08:29:26;;;;;;;2.22;1.80;;;;;;;13.29;55.62;99065.06;5052035;28;20021;-54
2022/09/26 08:31:53;;;;;;;2.65;1.80;;;;;;;13.20;56.29;99061.47;5051898;28;20426;-57
2022/09/26 08:34:20;;;;;;;3.22;1.60;;;;;;;13.07;56.72;99066.44;5052022;28;20656;-52
2022/09/26 08:36:53;;;;;;;2.13;1.50;;;;;;;13.02;57.21;99072.31;5052352;28;20459;-55
2022/09/26 08:39:20;;;;;;;5.53;1.27;;;;;;;12.77;58.34;99077.47;5051962;28;20025;-56
2022/09/26 08:42:16;;;;;;;1.63;0.80;;;;;;;12.77;58.92;99080.16;5051654;28;20039;-58
2022/09/26 08:45:00;;;;;;;;;;;;;;;13.03;58.60;99074.00;5044716;28;20040;-54
2022/09/26 08:47:33;;;;;;;1.42;0.98;;;;;;;12.79;58.65;99077.34;5051924;28;19919;-54
2022/09/26 08:50:19;;;;;;;2.10;1.10;;;;;;;12.77;59.00;99084.72;5051799;28;20056;-54
2022/09/26 08:52:50;;;;;;;1.83;1.00;;;;;;;12.94;58.73;99088.34;5051430;28;20052;-58
2022/09/26 08:55:25;;;;;;;4.63;0.90;;;;;;;13.10;58.11;99086.78;5051941;28;20106;-57
2022/09/26 08:57:59;;;;;;;2.72;0.90;;;;;;;13.27;57.11;99093.09;5052159;28;20029;-55
2022/09/26 09:00:28;;;;;;;1.10;1.00;;;;;;;13.30;56.99;99092.78;5051568;28;20040;-57
2022/09/26 09:03:33;;;;;;;5.80;1.00;;;;;;;13.47;56.89;99082.97;5051620;28;20029;-54
2022/09/26 09:06:02;;;;;;;2.25;1.13;;;;;;;13.71;55.43;99093.00;5052244;28;20120;-56
2022/09/26 09:08:37;;;;;;;2.20;1.40;;;;;;;14.07;55.01;99094.63;5051607;28;20481;-53
2022/09/26 09:11:06;;;;;;;3.38;1.48;;;;;;;14.31;54.40;99103.75;5051767;28;20104;-54
2022/09/26 09:13:47;;;;;;;2.85;1.13;;;;;;;14.55;54.17;99102.09;5051664;28;20056;-57
2022/09/26 09:16:37;;;;;;;2.45;1.42;;;;;;;14.52;53.52;99100.56;5054498;28;20586;-54
2022/09/26 09:19:10;;;;;;;2.78;1.55;;;;;;;14.45;53.21;99108.47;5054818;28;20127;-52
2022/09/26 09:22:04;;;;;;;3.42;1.80;;;;;;;14.21;54.34;99111.97;5055395;28;20044;-52
2022/09/26 09:24:38;;;;;;;3.13;1.75;;;;;;;13.63;54.37;99109.94;5055183;28;20048;-51
2022/09/26 09:27:23;;;;;;;6.18;1.80;;;;;;;13.16;56.35;99096.88;5055439;28;20072;-50
2022/09/26 09:30:03;;;;;;;3.00;1.90;;;;;;;12.96;56.96;99123.97;5054890;28;20037;-52
2022/09/26 09:32:40;;;;;;;1.42;1.33;;;;;;;12.58;58.02;99121.47;5055461;28;20048;-53
2022/09/26 09:35:13;;;;;;;2.15;1.55;;;;;;;12.36;59.15;99122.81;5063508;28;20371;-53
2022/09/26 09:37:51;;;;;;;3.58;1.40;;;;;;;12.25;59.76;99131.91;5064359;28;20039;-52
2022/09/26 09:40:32;;;;;;;2.40;1.50;;;;;;;12.22;59.94;99134.06;5063519;28;20045;-51
2022/09/26 09:43:15;;;;;;;3.15;1.45;;;;;;;12.23;60.29;99133.06;5065274;28;20033;-56
2022/09/26 09:45:46;;;;;;;3.55;1.40;;;;;;;12.25;59.91;99131.06;5064320;28;20032;-56
2022/09/26 09:48:12;;;;;;;4.72;1.60;;;;;;;12.29;59.31;99135.97;5065654;28;20348;-53
2022/09/26 09:50:47;;;;;;;3.83;1.45;;;;;;;12.56;59.36;99128.84;5064314;28;20048;-52
2022/09/26 09:53:44;;;;;;;4.00;1.40;;;;;;;12.69;58.51;99104.28;5054491;28;20036;-56
2022/09/26 09:56:40;;;;;;;2.55;1.35;;;;;;;13.24;57.23;99137.25;5069378;28;20052;-53
2022/09/26 09:59:25;;;;;;;1.80;1.50;;;;;;;13.33;56.93;99130.94;5073558;28;20036;-55
2022/09/26 10:02:27;;;;;;;2.53;1.30;;;;;;;13.35;56.83;99133.44;5073576;28;20024;-58
2022/09/26 10:05:32;;;;;;;2.60;1.40;;;;;;;13.28;57.25;99135.97;5075088;28;20327;-55
2022/09/26 10:07:58;;;;;;;2.72;1.17;;;;;;;13.06;57.56;99140.84;5074240;28;20083;-52
2022/09/26 10:10:40;;;;;;;3.17;1.30;;;;;;;13.09;58.17;99141.53;5079294;28;20032;-54
2022/09/26 10:13:09;;;;;;;1.63;1.13;;;;;;;13.10;57.54;99143.22;5094328;28;20450;-58
2022/09/26 10:15:46;;;;;;;1.92;0.90;;;;;;;13.31;57.06;99137.47;5085204;28;20043;-55
2022/09/26 10:18:20;;;;;;;2.33;1.08;;;;;;;13.56;56.17;99134.94;5070243;28;20388;-57
2022/09/26 10:20:59;;;;;;;3.33;0.90;;;;;;;13.63;55.75;99117.19;5071142;28;20044;-57
2022/09/26 10:23:35;;;;;;;1.80;0.90;;;;;;;13.91;55.43;99133.94;5070513;28;20036;-55
2022/09/26 10:26:06;;;;;;;1.83;0.90;;;;;;;13.97;54.98;99143.22;5070040;28;20042;-56
2022/09/26 10:28:33;;;;;;;2.83;0.68;;;;;;;13.94;54.46;99138.16;5072348;28;20028;-57
2022/09/26 10:31:08;;;;;;;2.60;0.80;;;;;;;14.04;53.97;99140.72;5072740;28;20044;-59
2022/09/26 10:33:36;;;;;;;1.17;0.70;;;;;;;14.04;54.18;99140.72;5068240;28;20032;-58
2022/09/26 10:36:15;;;;;;;1.60;0.80;;;;;;;14.20;53.94;99143.44;5065112;28;20173;-56
2022/09/26 10:41:43;;;;;;;2.97;0.60;;;;;;;14.55;51.86;99147.88;5061605;28;20029;-57
2022/09/26 10:44:26;;;;;;;1.05;0.68;;;;;;;14.85;52.35;99146.44;5072984;28;20039;-58
2022/09/26 10:46:56;;;;;;;1.15;0.65;;;;;;;14.98;50.85;99145.06;5066624;28;20119;-56
2022/09/26 10:49:27;;;;;;;2.35;0.70;;;;;;;15.15;49.85;99149.44;5063502;28;20128;-54
2022/09/26 10:52:02;;;;;;;1.38;0.77;;;;;;;15.23;49.44;99148.59;5064059;28;20044;-54
2022/09/26 10:54:41;;;;;;;2.03;1.10;;;;;;;15.28;49.92;99143.53;5063066;28;20024;-53
2022/09/26 10:57:18;;;;;;;3.70;1.30;;;;;;;15.31;49.10;99145.88;5070734;28;20036;-51
2022/09/26 10:59:46;;;;;;;1.88;1.40;;;;;;;15.40;49.12;99160.19;5072087;28;20032;-55
2022/09/26 11:02:18;;;;;;;1.20;1.10;;;;;;;15.53;48.99;99148.84;5072312;28;20034;-54
2022/09/26 11:07:34;;;;;;;2.08;0.90;;;;;;;15.14;49.43;99147.75;5072596;28;20039;-53
2022/09/26 11:10:13;;;;;;;0.80;0.77;;;;;;;15.07;50.24;99158.38;5072128;28;20112;-55
2022/09/26 11:12:55;;;;;;;1.58;0.70;;;;;;;15.01;50.45;99152.81;5090223;28;20034;-56
2022/09/26 11:15:22;;;;;;;2.88;0.95;;;;;;;14.73;50.72;99158.53;5092366;28;20039;-59
2022/09/26 11:17:52;;;;;;;2.60;0.95;;;;;;;14.62;51.46;99157.84;5073074;28;20112;-56
2022/09/26 11:20:44;;;;;;;1.95;1.60;;;;;;;14.67;51.66;99169.97;5072323;28;20070;-60
2022/09/26 11:23:43;;;;;;;1.70;1.27;;;;;;;14.60;52.01;99164.38;5072717;28;20064;-56
2022/09/26 11:26:28;;;;;;;4.13;0.90;;;;;;;14.41;52.33;99160.97;5071734;28;20032;-59
2022/09/26 11:29:12;;;;;;;2.42;0.98;;;;;;;14.17;53.17;99170.69;5072207;28;20439;-60
2022/09/26 11:31:41;;;;;;;2.20;1.40;;;;;;;13.84;54.28;99175.94;5071859;28;20040;-56
2022/09/26 11:34:16;;;;;;;3.67;1.30;;;;;;;13.56;55.87;99175.28;5071639;28;20419;-58
2022/09/26 11:37:00;;;;;;;5.20;1.10;;;;;;;13.30;58.30;99184.16;5071868;28;20522;-58
2022/09/26 11:39:31;;;;;;;3.83;0.98;;;;;;;13.03;59.63;99186.84;5063441;28;20037;-55
2022/09/26 11:42:16;;;;;;;5.35;1.13;;;;;;;12.79;60.97;99198.22;5061411;28;20036;-61
2022/09/26 11:44:58;;;;;;;6.05;1.10;;;;;;;12.51;61.52;99192.06;5062672;28;20020;-56
2022/09/26 11:47:49;;;;;;;8.05;1.42;;;;;;;12.43;62.44;99199.03;5063999;28;20028;-58
2022/09/26 11:50:22;;;;;;;5.10;1.88;;;;;;;12.27;63.43;99204.22;5070221;28;20049;-58
2022/09/26 11:53:00;;;;;;;5.15;1.27;;;;;;;12.21;64.64;99208.38;5070832;28;20139;-56
2022/09/26 11:55:39;;;;;;;2.65;1.55;;;;;;;12.15;65.89;99209.81;5072269;28;20036;-54
2022/09/26 11:58:13;;;;;;;5.15;1.30;;;;;;;12.33;65.85;99212.53;5070250;28;20556;-57
2022/09/26 12:01:22;;;;;;;3.90;1.58;;;;;;;12.60;65.08;99209.97;5070236;28;20037;-56
2022/09/26 12:04:33;;;;;;;6.63;1.80;;;;;;;12.80;64.38;99212.50;5029274;28;20037;-59
2022/09/26 12:07:15;;;;;;;9.73;1.85;;;;;;;12.69;64.09;99213.56;5063191;28;20358;-59
2022/09/26 12:09:44;;;;;;;6.72;2.00;;;;;;;12.59;64.23;99209.09;5065253;28;20040;-56